sensor_id;sensor_type;location;lat;lon;timestamp;P1;durP1;ratioP1;P2;durP2;ratioP2
6832;SDS011;3454;42.654;23.378;2023-04-01T00:00:52;15.70;;;6.97;;
6832;SDS011;3454;42.654;23.378;2023-04-01T00:03:18;17.83;;;6.90;;
6832;SDS011;3454;42.654;23.378;2023-04-01T00:05:45;16.50;;;7.60;;
6832;SDS011;3454;42.654;23.378;2023-04-01T00:08:11;13.77;;;7.93;;
6832;SDS011;3454;42.654;23.378;2023-04-01T00:10:36;14.13;;;7.50;;
6832;SDS011;3454;42.654;23.378;2023-04-01T00:13:02;14.53;;;8.03;;
6832;SDS011;3454;42.654;23.378;2023-04-01T00:15:27;12.97;;;7.33;;
6832;SDS011;3454;42.654;23.378;2023-04-01T00:17:53;10.77;;;6.67;;
6832;SDS011;3454;42.654;23.378;2023-04-01T00:20:19;12.00;;;7.00;;
6832;SDS011;3454;42.654;23.378;2023-04-01T00:22:45;12.47;;;6.80;;
6832;SDS011;3454;42.654;23.378;2023-04-01T00:25:11;10.97;;;7.20;;
6832;SDS011;3454;42.654;23.378;2023-04-01T00:27:36;11.33;;;6.70;;
6832;SDS011;3454;42.654;23.378;2023-04-01T00:30:02;13.10;;;6.83;;
6832;SDS011;3454;42.654;23.378;2023-04-01T00:32:28;10.43;;;6.70;;
6832;SDS011;3454;42.654;23.378;2023-04-01T00:34:55;13.60;;;7.50;;
6832;SDS011;3454;42.654;23.378;2023-04-01T00:37:21;12.63;;;7.60;;
6832;SDS011;3454;42.654;23.378;2023-04-01T00:39:46;14.83;;;5.80;;
6832;SDS011;3454;42.654;23.378;2023-04-01T00:42:12;15.10;;;6.60;;
6832;SDS011;3454;42.654;23.378;2023-04-01T00:44:39;14.10;;;6.00;;
6832;SDS011;3454;42.654;23.378;2023-04-01T00:47:04;11.13;;;6.47;;
6832;SDS011;3454;42.654;23.378;2023-04-01T00:49:40;12.50;;;6.37;;
6832;SDS011;3454;42.654;23.378;2023-04-01T00:52:10;13.67;;;6.13;;
6832;SDS011;3454;42.654;23.378;2023-04-01T00:54:38;13.87;;;6.90;;
6832;SDS011;3454;42.654;23.378;2023-04-01T00:57:09;12.10;;;6.83;;
6832;SDS011;3454;42.654;23.378;2023-04-01T00:59:43;11.00;;;6.60;;
6832;SDS011;3454;42.654;23.378;2023-04-01T01:02:12;10.93;;;6.40;;
6832;SDS011;3454;42.654;23.378;2023-04-01T01:04:39;9.47;;;6.10;;
6832;SDS011;3454;42.654;23.378;2023-04-01T01:07:19;11.17;;;5.50;;
6832;SDS011;3454;42.654;23.378;2023-04-01T01:10:18;10.20;;;4.90;;
6832;SDS011;3454;42.654;23.378;2023-04-01T01:12:50;7.50;;;4.63;;
6832;SDS011;3454;42.654;23.378;2023-04-01T01:23:08;7.50;;;3.97;;
6832;SDS011;3454;42.654;23.378;2023-04-01T01:26:14;8.10;;;3.90;;
6832;SDS011;3454;42.654;23.378;2023-04-01T01:37:16;7.17;;;2.90;;
6832;SDS011;3454;42.654;23.378;2023-04-01T01:39:53;5.37;;;3.27;;
6832;SDS011;3454;42.654;23.378;2023-04-01T01:42:22;7.27;;;3.47;;
6832;SDS011;3454;42.654;23.378;2023-04-01T01:44:50;6.80;;;3.13;;
6832;SDS011;3454;42.654;23.378;2023-04-01T01:47:19;4.67;;;3.10;;
6832;SDS011;3454;42.654;23.378;2023-04-01T01:49:47;7.10;;;3.43;;
6832;SDS011;3454;42.654;23.378;2023-04-01T01:52:13;8.93;;;3.10;;
6832;SDS011;3454;42.654;23.378;2023-04-01T01:54:49;6.63;;;3.07;;
6832;SDS011;3454;42.654;23.378;2023-04-01T01:57:14;5.07;;;2.97;;
6832;SDS011;3454;42.654;23.378;2023-04-01T01:59:41;3.77;;;2.67;;
6832;SDS011;3454;42.654;23.378;2023-04-01T02:02:08;9.37;;;3.30;;
6832;SDS011;3454;42.654;23.378;2023-04-01T02:04:37;9.27;;;3.30;;
6832;SDS011;3454;42.654;23.378;2023-04-01T02:07:08;8.10;;;3.10;;
6832;SDS011;3454;42.654;23.378;2023-04-01T02:09:39;6.63;;;2.87;;
6832;SDS011;3454;42.654;23.378;2023-04-01T02:12:06;6.53;;;2.90;;
6832;SDS011;3454;42.654;23.378;2023-04-01T02:17:22;6.83;;;3.43;;
6832;SDS011;3454;42.654;23.378;2023-04-01T02:20:11;8.97;;;3.17;;
6832;SDS011;3454;42.654;23.378;2023-04-01T02:22:41;5.97;;;2.50;;
6832;SDS011;3454;42.654;23.378;2023-04-01T02:25:13;11.90;;;3.20;;
6832;SDS011;3454;42.654;23.378;2023-04-01T02:27:42;4.67;;;2.53;;
6832;SDS011;3454;42.654;23.378;2023-04-01T02:30:10;5.90;;;2.55;;
6832;SDS011;3454;42.654;23.378;2023-04-01T02:32:37;7.73;;;3.40;;
6832;SDS011;3454;42.654;23.378;2023-04-01T02:35:08;8.13;;;3.10;;
6832;SDS011;3454;42.654;23.378;2023-04-01T02:37:37;7.77;;;3.23;;
6832;SDS011;3454;42.654;23.378;2023-04-01T02:40:07;4.33;;;2.80;;
6832;SDS011;3454;42.654;23.378;2023-04-01T02:42:34;4.10;;;2.60;;
6832;SDS011;3454;42.654;23.378;2023-04-01T02:45:00;10.00;;;2.90;;
6832;SDS011;3454;42.654;23.378;2023-04-01T02:47:26;8.50;;;3.20;;
6832;SDS011;3454;42.654;23.378;2023-04-01T02:49:51;8.97;;;4.00;;
6832;SDS011;3454;42.654;23.378;2023-04-01T02:52:23;7.20;;;2.87;;
6832;SDS011;3454;42.654;23.378;2023-04-01T02:54:48;7.43;;;3.33;;
6832;SDS011;3454;42.654;23.378;2023-04-01T02:57:14;6.23;;;3.30;;
6832;SDS011;3454;42.654;23.378;2023-04-01T02:59:39;5.77;;;3.10;;
6832;SDS011;3454;42.654;23.378;2023-04-01T03:02:05;7.93;;;3.73;;
6832;SDS011;3454;42.654;23.378;2023-04-01T03:04:38;7.63;;;3.40;;
6832;SDS011;3454;42.654;23.378;2023-04-01T03:07:04;7.07;;;3.47;;
6832;SDS011;3454;42.654;23.378;2023-04-01T03:09:31;9.97;;;4.73;;
6832;SDS011;3454;42.654;23.378;2023-04-01T03:11:56;10.37;;;5.70;;
6832;SDS011;3454;42.654;23.378;2023-04-01T03:14:22;11.13;;;5.20;;
6832;SDS011;3454;42.654;23.378;2023-04-01T03:16:47;11.70;;;4.93;;
6832;SDS011;3454;42.654;23.378;2023-04-01T03:19:13;11.30;;;4.43;;
6832;SDS011;3454;42.654;23.378;2023-04-01T03:21:38;12.03;;;5.10;;
6832;SDS011;3454;42.654;23.378;2023-04-01T03:24:04;7.97;;;4.30;;
6832;SDS011;3454;42.654;23.378;2023-04-01T03:26:30;8.57;;;4.10;;
6832;SDS011;3454;42.654;23.378;2023-04-01T03:28:56;8.73;;;4.67;;
6832;SDS011;3454;42.654;23.378;2023-04-01T03:31:21;7.80;;;4.40;;
6832;SDS011;3454;42.654;23.378;2023-04-01T03:33:47;7.67;;;4.63;;
6832;SDS011;3454;42.654;23.378;2023-04-01T03:36:12;10.37;;;4.40;;
6832;SDS011;3454;42.654;23.378;2023-04-01T03:38:39;9.43;;;3.97;;
6832;SDS011;3454;42.654;23.378;2023-04-01T03:41:06;8.70;;;4.73;;
6832;SDS011;3454;42.654;23.378;2023-04-01T03:43:31;7.83;;;4.40;;
6832;SDS011;3454;42.654;23.378;2023-04-01T03:45:57;7.77;;;4.10;;
6832;SDS011;3454;42.654;23.378;2023-04-01T03:48:23;11.23;;;4.97;;
6832;SDS011;3454;42.654;23.378;2023-04-01T03:50:50;10.20;;;4.73;;
6832;SDS011;3454;42.654;23.378;2023-04-01T03:53:16;10.73;;;4.70;;
6832;SDS011;3454;42.654;23.378;2023-04-01T03:55:41;9.00;;;5.30;;
6832;SDS011;3454;42.654;23.378;2023-04-01T03:58:07;7.37;;;4.50;;
6832;SDS011;3454;42.654;23.378;2023-04-01T04:00:32;10.60;;;4.80;;
6832;SDS011;3454;42.654;23.378;2023-04-01T04:02:58;10.23;;;5.37;;
6832;SDS011;3454;42.654;23.378;2023-04-01T04:05:24;10.40;;;5.87;;
6832;SDS011;3454;42.654;23.378;2023-04-01T04:07:51;12.13;;;7.13;;
6832;SDS011;3454;42.654;23.378;2023-04-01T04:10:17;13.97;;;7.30;;
6832;SDS011;3454;42.654;23.378;2023-04-01T04:12:43;12.83;;;7.07;;
6832;SDS011;3454;42.654;23.378;2023-04-01T04:15:10;14.53;;;7.40;;
6832;SDS011;3454;42.654;23.378;2023-04-01T04:17:36;13.57;;;6.03;;
6832;SDS011;3454;42.654;23.378;2023-04-01T04:20:01;12.33;;;6.60;;
6832;SDS011;3454;42.654;23.378;2023-04-01T04:22:27;9.83;;;5.37;;
6832;SDS011;3454;42.654;23.378;2023-04-01T04:24:58;9.97;;;5.87;;
6832;SDS011;3454;42.654;23.378;2023-04-01T04:27:24;15.13;;;6.03;;
6832;SDS011;3454;42.654;23.378;2023-04-01T04:29:49;9.93;;;5.83;;
6832;SDS011;3454;42.654;23.378;2023-04-01T04:32:15;10.13;;;5.60;;
6832;SDS011;3454;42.654;23.378;2023-04-01T04:34:40;8.40;;;5.17;;
6832;SDS011;3454;42.654;23.378;2023-04-01T04:37:05;11.17;;;4.80;;
6832;SDS011;3454;42.654;23.378;2023-04-01T04:39:31;8.93;;;4.00;;
6832;SDS011;3454;42.654;23.378;2023-04-01T04:41:56;8.73;;;4.63;;
6832;SDS011;3454;42.654;23.378;2023-04-01T04:44:22;8.83;;;4.43;;
6832;SDS011;3454;42.654;23.378;2023-04-01T04:46:47;8.00;;;4.10;;
6832;SDS011;3454;42.654;23.378;2023-04-01T04:49:13;5.80;;;3.47;;
6832;SDS011;3454;42.654;23.378;2023-04-01T04:51:38;9.13;;;4.47;;
6832;SDS011;3454;42.654;23.378;2023-04-01T04:54:04;6.90;;;4.00;;
6832;SDS011;3454;42.654;23.378;2023-04-01T04:56:31;9.30;;;4.03;;
6832;SDS011;3454;42.654;23.378;2023-04-01T04:58:57;7.23;;;3.73;;
6832;SDS011;3454;42.654;23.378;2023-04-01T05:01:23;9.93;;;3.90;;
6832;SDS011;3454;42.654;23.378;2023-04-01T05:03:50;9.93;;;4.03;;
6832;SDS011;3454;42.654;23.378;2023-04-01T05:06:15;5.30;;;3.80;;
6832;SDS011;3454;42.654;23.378;2023-04-01T05:08:42;23.13;;;12.40;;
6832;SDS011;3454;42.654;23.378;2023-04-01T05:11:09;7.50;;;5.10;;
6832;SDS011;3454;42.654;23.378;2023-04-01T05:13:43;13.53;;;5.10;;
6832;SDS011;3454;42.654;23.378;2023-04-01T05:16:10;12.70;;;4.97;;
6832;SDS011;3454;42.654;23.378;2023-04-01T05:18:36;12.70;;;6.90;;
6832;SDS011;3454;42.654;23.378;2023-04-01T05:21:02;19.17;;;10.30;;
6832;SDS011;3454;42.654;23.378;2023-04-01T05:23:27;11.37;;;6.23;;
6832;SDS011;3454;42.654;23.378;2023-04-01T05:25:53;9.50;;;5.33;;
6832;SDS011;3454;42.654;23.378;2023-04-01T05:28:18;26.67;;;12.33;;
6832;SDS011;3454;42.654;23.378;2023-04-01T05:30:45;18.80;;;10.37;;
6832;SDS011;3454;42.654;23.378;2023-04-01T05:33:11;12.57;;;6.27;;
6832;SDS011;3454;42.654;23.378;2023-04-01T05:35:37;13.43;;;5.03;;
6832;SDS011;3454;42.654;23.378;2023-04-01T05:38:03;11.57;;;5.23;;
6832;SDS011;3454;42.654;23.378;2023-04-01T05:40:29;11.10;;;6.10;;
6832;SDS011;3454;42.654;23.378;2023-04-01T05:42:55;9.40;;;5.37;;
6832;SDS011;3454;42.654;23.378;2023-04-01T05:45:20;9.77;;;6.00;;
6832;SDS011;3454;42.654;23.378;2023-04-01T05:47:46;8.27;;;4.77;;
6832;SDS011;3454;42.654;23.378;2023-04-01T05:50:11;13.33;;;6.70;;
6832;SDS011;3454;42.654;23.378;2023-04-01T05:52:37;7.50;;;5.10;;
6832;SDS011;3454;42.654;23.378;2023-04-01T05:55:03;7.83;;;4.47;;
6832;SDS011;3454;42.654;23.378;2023-04-01T05:57:30;13.00;;;5.40;;
6832;SDS011;3454;42.654;23.378;2023-04-01T05:59:55;11.90;;;5.73;;
6832;SDS011;3454;42.654;23.378;2023-04-01T06:02:20;10.80;;;4.93;;
6832;SDS011;3454;42.654;23.378;2023-04-01T06:04:46;14.93;;;5.67;;
6832;SDS011;3454;42.654;23.378;2023-04-01T06:07:12;7.87;;;5.33;;
6832;SDS011;3454;42.654;23.378;2023-04-01T06:09:40;8.73;;;4.33;;
6832;SDS011;3454;42.654;23.378;2023-04-01T06:34:17;13.25;;;6.25;;
6832;SDS011;3454;42.654;23.378;2023-04-01T06:39:32;13.87;;;6.10;;
6832;SDS011;3454;42.654;23.378;2023-04-01T06:56:30;6.97;;;3.67;;
6832;SDS011;3454;42.654;23.378;2023-04-01T07:01:31;11.05;;;4.80;;
6832;SDS011;3454;42.654;23.378;2023-04-01T07:04:02;10.37;;;4.23;;
6832;SDS011;3454;42.654;23.378;2023-04-01T07:06:32;12.23;;;5.80;;
6832;SDS011;3454;42.654;23.378;2023-04-01T07:09:05;7.57;;;5.07;;
6832;SDS011;3454;42.654;23.378;2023-04-01T07:11:36;11.57;;;5.37;;
6832;SDS011;3454;42.654;23.378;2023-04-01T07:19:31;11.63;;;5.03;;
6832;SDS011;3454;42.654;23.378;2023-04-01T07:22:43;11.23;;;4.82;;
6832;SDS011;3454;42.654;23.378;2023-04-01T07:24:54;8.90;;;5.67;;
6832;SDS011;3454;42.654;23.378;2023-04-01T07:27:22;10.00;;;5.70;;
6832;SDS011;3454;42.654;23.378;2023-04-01T07:29:48;11.20;;;5.47;;
6832;SDS011;3454;42.654;23.378;2023-04-01T07:32:22;9.27;;;5.03;;
6832;SDS011;3454;42.654;23.378;2023-04-01T07:37:46;13.37;;;5.47;;
6832;SDS011;3454;42.654;23.378;2023-04-01T07:43:45;11.75;;;4.80;;
6832;SDS011;3454;42.654;23.378;2023-04-01T07:51:38;8.60;;;5.67;;
6832;SDS011;3454;42.654;23.378;2023-04-01T07:57:07;8.70;;;4.77;;
6832;SDS011;3454;42.654;23.378;2023-04-01T08:05:59;7.90;;;4.27;;
6832;SDS011;3454;42.654;23.378;2023-04-01T08:11:01;11.00;;;4.27;;
6832;SDS011;3454;42.654;23.378;2023-04-01T08:16:19;13.53;;;5.33;;
6832;SDS011;3454;42.654;23.378;2023-04-01T08:22:13;7.93;;;4.32;;
6832;SDS011;3454;42.654;23.378;2023-04-01T08:24:44;9.60;;;5.07;;
6832;SDS011;3454;42.654;23.378;2023-04-01T08:27:23;11.57;;;4.68;;
6832;SDS011;3454;42.654;23.378;2023-04-01T08:29:58;11.00;;;4.90;;
6832;SDS011;3454;42.654;23.378;2023-04-01T08:32:34;11.15;;;4.60;;
6832;SDS011;3454;42.654;23.378;2023-04-01T08:37:41;13.32;;;4.28;;
6832;SDS011;3454;42.654;23.378;2023-04-01T08:45:53;10.50;;;4.15;;
6832;SDS011;3454;42.654;23.378;2023-04-01T08:48:45;11.70;;;5.80;;
6832;SDS011;3454;42.654;23.378;2023-04-01T08:51:27;13.93;;;4.63;;
6832;SDS011;3454;42.654;23.378;2023-04-01T08:54:20;15.30;;;4.28;;
6832;SDS011;3454;42.654;23.378;2023-04-01T09:10:44;11.05;;;4.88;;
6832;SDS011;3454;42.654;23.378;2023-04-01T09:35:21;12.88;;;7.50;;
6832;SDS011;3454;42.654;23.378;2023-04-01T09:40:54;11.48;;;3.95;;
6832;SDS011;3454;42.654;23.378;2023-04-01T09:46:16;5.00;;;3.13;;
6832;SDS011;3454;42.654;23.378;2023-04-01T10:02:27;4.95;;;2.63;;
6832;SDS011;3454;42.654;23.378;2023-04-01T10:05:15;5.90;;;3.10;;
6832;SDS011;3454;42.654;23.378;2023-04-01T10:19:31;5.57;;;2.60;;
6832;SDS011;3454;42.654;23.378;2023-04-01T10:33:23;9.23;;;3.67;;
6832;SDS011;3454;42.654;23.378;2023-04-01T10:39:10;9.77;;;4.00;;
6832;SDS011;3454;42.654;23.378;2023-04-01T11:10:38;6.88;;;3.00;;
6832;SDS011;3454;42.654;23.378;2023-04-01T11:27:25;13.65;;;4.07;;
6832;SDS011;3454;42.654;23.378;2023-04-01T11:46:31;6.32;;;2.10;;
6832;SDS011;3454;42.654;23.378;2023-04-01T11:59:45;7.07;;;2.42;;
6832;SDS011;3454;42.654;23.378;2023-04-01T12:05:12;5.00;;;2.40;;
6832;SDS011;3454;42.654;23.378;2023-04-01T12:07:53;5.73;;;2.57;;
6832;SDS011;3454;42.654;23.378;2023-04-01T12:10:44;5.47;;;2.40;;
6832;SDS011;3454;42.654;23.378;2023-04-01T12:16:28;5.90;;;3.20;;
6832;SDS011;3454;42.654;23.378;2023-04-01T12:21:45;7.00;;;3.10;;
6832;SDS011;3454;42.654;23.378;2023-04-01T12:29:58;4.20;;;2.43;;
6832;SDS011;3454;42.654;23.378;2023-04-01T12:45:54;5.73;;;2.87;;
6832;SDS011;3454;42.654;23.378;2023-04-01T13:05:01;8.03;;;3.73;;
6832;SDS011;3454;42.654;23.378;2023-04-01T13:08:37;5.33;;;2.73;;
6832;SDS011;3454;42.654;23.378;2023-04-01T13:11:09;5.83;;;3.03;;
6832;SDS011;3454;42.654;23.378;2023-04-01T13:16:48;6.20;;;2.57;;
6832;SDS011;3454;42.654;23.378;2023-04-01T13:19:17;4.77;;;2.77;;
6832;SDS011;3454;42.654;23.378;2023-04-01T13:37:54;3.95;;;1.40;;
6832;SDS011;3454;42.654;23.378;2023-04-01T13:42:59;5.10;;;2.60;;
6832;SDS011;3454;42.654;23.378;2023-04-01T13:56:41;4.88;;;2.35;;
6832;SDS011;3454;42.654;23.378;2023-04-01T14:02:14;5.70;;;2.17;;
6832;SDS011;3454;42.654;23.378;2023-04-01T14:16:00;9.40;;;4.10;;
6832;SDS011;3454;42.654;23.378;2023-04-01T14:18:47;12.50;;;4.03;;
6832;SDS011;3454;42.654;23.378;2023-04-01T14:21:35;6.53;;;3.47;;
6832;SDS011;3454;42.654;23.378;2023-04-01T14:27:25;5.75;;;2.83;;
6832;SDS011;3454;42.654;23.378;2023-04-01T14:35:22;7.50;;;3.63;;
6832;SDS011;3454;42.654;23.378;2023-04-01T14:46:23;7.70;;;2.95;;
6832;SDS011;3454;42.654;23.378;2023-04-01T14:49:24;6.65;;;3.08;;
6832;SDS011;3454;42.654;23.378;2023-04-01T14:54:46;5.93;;;2.40;;
6832;SDS011;3454;42.654;23.378;2023-04-01T14:57:15;5.55;;;2.30;;
6832;SDS011;3454;42.654;23.378;2023-04-01T14:59:53;5.07;;;2.30;;
6832;SDS011;3454;42.654;23.378;2023-04-01T15:05:15;5.43;;;2.60;;
6832;SDS011;3454;42.654;23.378;2023-04-01T15:08:01;7.82;;;2.70;;
6832;SDS011;3454;42.654;23.378;2023-04-01T15:10:43;4.13;;;2.42;;
6832;SDS011;3454;42.654;23.378;2023-04-01T15:24:17;6.07;;;3.20;;
6832;SDS011;3454;42.654;23.378;2023-04-01T15:26:54;5.82;;;3.53;;
6832;SDS011;3454;42.654;23.378;2023-04-01T15:32:21;6.15;;;3.55;;
6832;SDS011;3454;42.654;23.378;2023-04-01T15:35:15;3.97;;;2.60;;
6832;SDS011;3454;42.654;23.378;2023-04-01T15:37:50;10.82;;;3.72;;
6832;SDS011;3454;42.654;23.378;2023-04-01T15:40:53;6.50;;;3.10;;
6832;SDS011;3454;42.654;23.378;2023-04-01T15:43:31;7.53;;;3.30;;
6832;SDS011;3454;42.654;23.378;2023-04-01T15:58:00;1.47;;;1.07;;
6832;SDS011;3454;42.654;23.378;2023-04-01T16:06:07;1.50;;;1.40;;
6832;SDS011;3454;42.654;23.378;2023-04-01T16:08:47;2.67;;;1.73;;
6832;SDS011;3454;42.654;23.378;2023-04-01T16:14:18;2.80;;;2.43;;
6832;SDS011;3454;42.654;23.378;2023-04-01T16:22:14;2.47;;;2.27;;
6832;SDS011;3454;42.654;23.378;2023-04-01T16:35:25;4.33;;;3.50;;
6832;SDS011;3454;42.654;23.378;2023-04-01T16:49:00;3.43;;;2.40;;
6832;SDS011;3454;42.654;23.378;2023-04-01T16:54:28;3.13;;;2.37;;
6832;SDS011;3454;42.654;23.378;2023-04-01T17:00:00;3.17;;;1.60;;
6832;SDS011;3454;42.654;23.378;2023-04-01T17:02:57;1.80;;;1.67;;
6832;SDS011;3454;42.654;23.378;2023-04-01T17:05:52;1.97;;;1.50;;
6832;SDS011;3454;42.654;23.378;2023-04-01T17:11:28;3.37;;;1.87;;
6832;SDS011;3454;42.654;23.378;2023-04-01T17:14:04;1.50;;;1.20;;
6832;SDS011;3454;42.654;23.378;2023-04-01T17:38:36;1.30;;;1.20;;
6832;SDS011;3454;42.654;23.378;2023-04-01T17:44:39;1.10;;;1.00;;
6832;SDS011;3454;42.654;23.378;2023-04-01T17:51:38;1.37;;;1.10;;
6832;SDS011;3454;42.654;23.378;2023-04-01T17:54:16;2.27;;;1.27;;
6832;SDS011;3454;42.654;23.378;2023-04-01T18:08:26;1.60;;;1.47;;
6832;SDS011;3454;42.654;23.378;2023-04-01T18:22:21;2.67;;;2.07;;
6832;SDS011;3454;42.654;23.378;2023-04-01T18:28:11;2.13;;;2.00;;
6832;SDS011;3454;42.654;23.378;2023-04-01T18:31:15;2.23;;;2.07;;
6832;SDS011;3454;42.654;23.378;2023-04-01T18:33:54;3.33;;;2.10;;
6832;SDS011;3454;42.654;23.378;2023-04-01T18:36:39;2.13;;;1.60;;
6832;SDS011;3454;42.654;23.378;2023-04-01T18:42:03;1.80;;;1.70;;
6832;SDS011;3454;42.654;23.378;2023-04-01T18:44:51;2.37;;;1.70;;
6832;SDS011;3454;42.654;23.378;2023-04-01T18:47:43;1.80;;;1.70;;
6832;SDS011;3454;42.654;23.378;2023-04-01T18:50:18;2.13;;;1.87;;
6832;SDS011;3454;42.654;23.378;2023-04-01T18:53:09;4.83;;;3.60;;
6832;SDS011;3454;42.654;23.378;2023-04-01T18:55:56;1.90;;;1.70;;
6832;SDS011;3454;42.654;23.378;2023-04-01T18:58:28;1.70;;;1.60;;
6832;SDS011;3454;42.654;23.378;2023-04-01T19:01:14;3.13;;;1.90;;
6832;SDS011;3454;42.654;23.378;2023-04-01T19:06:33;1.50;;;1.40;;
6832;SDS011;3454;42.654;23.378;2023-04-01T19:09:54;1.73;;;1.63;;
6832;SDS011;3454;42.654;23.378;2023-04-01T19:12:15;1.40;;;1.33;;
6832;SDS011;3454;42.654;23.378;2023-04-01T19:28:41;1.60;;;1.50;;
6832;SDS011;3454;42.654;23.378;2023-04-01T19:31:16;1.53;;;1.43;;
6832;SDS011;3454;42.654;23.378;2023-04-01T19:39:44;2.90;;;1.10;;
6832;SDS011;3454;42.654;23.378;2023-04-01T19:48:05;0.87;;;0.77;;
6832;SDS011;3454;42.654;23.378;2023-04-01T19:50:48;0.90;;;0.90;;
6832;SDS011;3454;42.654;23.378;2023-04-01T19:53:40;1.37;;;1.00;;
6832;SDS011;3454;42.654;23.378;2023-04-01T19:58:44;0.80;;;0.80;;
6832;SDS011;3454;42.654;23.378;2023-04-01T20:01:19;1.57;;;0.80;;
6832;SDS011;3454;42.654;23.378;2023-04-01T20:11:30;1.03;;;0.80;;
6832;SDS011;3454;42.654;23.378;2023-04-01T20:14:38;1.87;;;0.90;;
6832;SDS011;3454;42.654;23.378;2023-04-01T20:27:44;0.97;;;0.97;;
6832;SDS011;3454;42.654;23.378;2023-04-01T20:49:41;0.83;;;0.80;;
6832;SDS011;3454;42.654;23.378;2023-04-01T20:52:24;1.30;;;1.20;;
6832;SDS011;3454;42.654;23.378;2023-04-01T20:58:02;3.03;;;1.97;;
6832;SDS011;3454;42.654;23.378;2023-04-01T21:25:30;2.00;;;1.20;;
6832;SDS011;3454;42.654;23.378;2023-04-01T21:28:08;1.97;;;0.90;;
6832;SDS011;3454;42.654;23.378;2023-04-01T21:31:02;1.00;;;0.70;;
6832;SDS011;3454;42.654;23.378;2023-04-01T21:45:10;1.30;;;1.00;;
6832;SDS011;3454;42.654;23.378;2023-04-01T21:47:53;1.10;;;0.93;;
6832;SDS011;3454;42.654;23.378;2023-04-01T22:10:38;1.13;;;1.03;;
6832;SDS011;3454;42.654;23.378;2023-04-01T22:21:03;2.77;;;1.00;;
6832;SDS011;3454;42.654;23.378;2023-04-01T22:23:45;1.23;;;1.13;;
6832;SDS011;3454;42.654;23.378;2023-04-01T22:29:33;1.07;;;1.03;;
6832;SDS011;3454;42.654;23.378;2023-04-01T22:32:07;1.23;;;1.00;;
6832;SDS011;3454;42.654;23.378;2023-04-01T22:34:49;2.10;;;0.93;;
6832;SDS011;3454;42.654;23.378;2023-04-01T22:40:34;1.03;;;0.90;;
6832;SDS011;3454;42.654;23.378;2023-04-01T22:43:13;1.30;;;1.10;;
6832;SDS011;3454;42.654;23.378;2023-04-01T22:51:24;1.17;;;0.70;;
6832;SDS011;3454;42.654;23.378;2023-04-01T22:56:37;1.20;;;0.80;;
6832;SDS011;3454;42.654;23.378;2023-04-01T22:59:13;1.33;;;0.80;;
6832;SDS011;3454;42.654;23.378;2023-04-01T23:02:21;3.10;;;0.70;;
6832;SDS011;3454;42.654;23.378;2023-04-01T23:04:47;1.60;;;1.13;;
6832;SDS011;3454;42.654;23.378;2023-04-01T23:10:15;1.47;;;1.00;;
6832;SDS011;3454;42.654;23.378;2023-04-01T23:12:47;2.67;;;1.13;;
6832;SDS011;3454;42.654;23.378;2023-04-01T23:15:16;0.70;;;0.70;;
6832;SDS011;3454;42.654;23.378;2023-04-01T23:31:03;0.73;;;0.70;;
6832;SDS011;3454;42.654;23.378;2023-04-01T23:33:29;0.33;;;0.30;;
6832;SDS011;3454;42.654;23.378;2023-04-01T23:38:32;0.50;;;0.50;;
6832;SDS011;3454;42.654;23.378;2023-04-01T23:41:01;0.73;;;0.60;;
6832;SDS011;3454;42.654;23.378;2023-04-01T23:43:37;0.70;;;0.40;;
6832;SDS011;3454;42.654;23.378;2023-04-01T23:46:05;1.30;;;0.80;;
6832;SDS011;3454;42.654;23.378;2023-04-01T23:48:40;1.90;;;0.60;;
6832;SDS011;3454;42.654;23.378;2023-04-01T23:51:26;0.57;;;0.57;;
6832;SDS011;3454;42.654;23.378;2023-04-01T23:53:59;1.47;;;0.40;;
6832;SDS011;3454;42.654;23.378;2023-04-01T23:56:36;0.40;;;0.40;;
6832;SDS011;3454;42.654;23.378;2023-04-01T23:59:04;1.70;;;0.40;;
